sensor_id;sensor_type;location;lat;lon;timestamp;P1;durP1;ratioP1;P2;durP2;ratioP2
12906;SDS011;6521;50.498;8.474;2023-04-25T00:02:09;16.73;;;13.70;;
12906;SDS011;6521;50.498;8.474;2023-04-25T00:04:39;18.73;;;13.13;;
12906;SDS011;6521;50.498;8.474;2023-04-25T00:07:10;21.83;;;13.00;;
12906;SDS011;6521;50.498;8.474;2023-04-25T00:09:41;18.50;;;13.63;;
12906;SDS011;6521;50.498;8.474;2023-04-25T00:12:12;15.90;;;12.20;;
12906;SDS011;6521;50.498;8.474;2023-04-25T00:14:43;18.17;;;13.37;;
12906;SDS011;6521;50.498;8.474;2023-04-25T00:17:16;19.60;;;14.27;;
12906;SDS011;6521;50.498;8.474;2023-04-25T00:19:47;21.23;;;14.50;;
12906;SDS011;6521;50.498;8.474;2023-04-25T00:22:18;18.90;;;13.10;;
12906;SDS011;6521;50.498;8.474;2023-04-25T00:24:49;17.90;;;13.43;;
12906;SDS011;6521;50.498;8.474;2023-04-25T00:27:21;19.37;;;13.93;;
12906;SDS011;6521;50.498;8.474;2023-04-25T00:29:52;21.57;;;14.57;;
12906;SDS011;6521;50.498;8.474;2023-04-25T00:32:22;17.77;;;13.93;;
12906;SDS011;6521;50.498;8.474;2023-04-25T00:34:54;19.00;;;13.87;;
12906;SDS011;6521;50.498;8.474;2023-04-25T00:37:26;18.17;;;12.67;;
12906;SDS011;6521;50.498;8.474;2023-04-25T00:39:57;13.70;;;11.13;;
12906;SDS011;6521;50.498;8.474;2023-04-25T00:42:29;17.47;;;10.63;;
12906;SDS011;6521;50.498;8.474;2023-04-25T00:45:00;14.67;;;9.73;;
12906;SDS011;6521;50.498;8.474;2023-04-25T00:47:31;12.90;;;10.50;;
12906;SDS011;6521;50.498;8.474;2023-04-25T00:50:03;16.93;;;11.03;;
12906;SDS011;6521;50.498;8.474;2023-04-25T00:52:34;18.47;;;11.70;;
12906;SDS011;6521;50.498;8.474;2023-04-25T00:55:06;15.57;;;10.80;;
12906;SDS011;6521;50.498;8.474;2023-04-25T00:57:37;14.77;;;11.43;;
12906;SDS011;6521;50.498;8.474;2023-04-25T01:00:08;18.20;;;10.13;;
12906;SDS011;6521;50.498;8.474;2023-04-25T01:02:40;13.77;;;10.20;;
12906;SDS011;6521;50.498;8.474;2023-04-25T01:05:12;13.47;;;9.23;;
12906;SDS011;6521;50.498;8.474;2023-04-25T01:07:44;12.20;;;9.53;;
12906;SDS011;6521;50.498;8.474;2023-04-25T01:10:15;14.13;;;8.90;;
12906;SDS011;6521;50.498;8.474;2023-04-25T01:12:46;12.47;;;9.27;;
12906;SDS011;6521;50.498;8.474;2023-04-25T01:15:17;13.20;;;8.30;;
12906;SDS011;6521;50.498;8.474;2023-04-25T01:17:48;14.20;;;8.50;;
12906;SDS011;6521;50.498;8.474;2023-04-25T01:20:20;15.40;;;8.33;;
12906;SDS011;6521;50.498;8.474;2023-04-25T01:22:53;11.03;;;9.43;;
12906;SDS011;6521;50.498;8.474;2023-04-25T01:25:25;12.43;;;8.83;;
12906;SDS011;6521;50.498;8.474;2023-04-25T01:27:56;10.97;;;8.40;;
12906;SDS011;6521;50.498;8.474;2023-04-25T01:30:28;12.90;;;8.67;;
12906;SDS011;6521;50.498;8.474;2023-04-25T01:33:00;12.17;;;8.43;;
12906;SDS011;6521;50.498;8.474;2023-04-25T01:35:32;16.13;;;8.57;;
12906;SDS011;6521;50.498;8.474;2023-04-25T01:38:03;12.60;;;8.57;;
12906;SDS011;6521;50.498;8.474;2023-04-25T01:40:34;16.63;;;8.53;;
12906;SDS011;6521;50.498;8.474;2023-04-25T01:43:10;13.63;;;8.37;;
12906;SDS011;6521;50.498;8.474;2023-04-25T01:45:42;11.47;;;8.20;;
12906;SDS011;6521;50.498;8.474;2023-04-25T01:48:15;13.47;;;8.27;;
12906;SDS011;6521;50.498;8.474;2023-04-25T01:50:47;12.77;;;8.77;;
12906;SDS011;6521;50.498;8.474;2023-04-25T01:53:18;12.30;;;7.90;;
12906;SDS011;6521;50.498;8.474;2023-04-25T01:55:50;13.37;;;7.60;;
12906;SDS011;6521;50.498;8.474;2023-04-25T01:58:23;11.90;;;8.00;;
12906;SDS011;6521;50.498;8.474;2023-04-25T02:01:17;11.90;;;7.30;;
12906;SDS011;6521;50.498;8.474;2023-04-25T02:03:56;12.97;;;7.70;;
12906;SDS011;6521;50.498;8.474;2023-04-25T02:06:37;12.20;;;7.20;;
12906;SDS011;6521;50.498;8.474;2023-04-25T02:09:08;14.53;;;7.80;;
12906;SDS011;6521;50.498;8.474;2023-04-25T02:11:44;11.70;;;6.93;;
12906;SDS011;6521;50.498;8.474;2023-04-25T02:14:33;11.67;;;7.20;;
12906;SDS011;6521;50.498;8.474;2023-04-25T02:17:18;16.60;;;7.93;;
12906;SDS011;6521;50.498;8.474;2023-04-25T02:19:49;8.43;;;7.03;;
12906;SDS011;6521;50.498;8.474;2023-04-25T02:22:20;12.17;;;7.63;;
12906;SDS011;6521;50.498;8.474;2023-04-25T02:24:51;12.80;;;7.77;;
12906;SDS011;6521;50.498;8.474;2023-04-25T02:27:24;12.80;;;7.00;;
12906;SDS011;6521;50.498;8.474;2023-04-25T02:29:55;12.67;;;6.97;;
12906;SDS011;6521;50.498;8.474;2023-04-25T02:32:26;11.73;;;7.67;;
12906;SDS011;6521;50.498;8.474;2023-04-25T02:34:57;11.07;;;6.73;;
12906;SDS011;6521;50.498;8.474;2023-04-25T02:37:34;15.77;;;7.07;;
12906;SDS011;6521;50.498;8.474;2023-04-25T02:40:07;12.13;;;6.30;;
12906;SDS011;6521;50.498;8.474;2023-04-25T02:42:39;10.20;;;5.83;;
12906;SDS011;6521;50.498;8.474;2023-04-25T02:45:10;14.10;;;5.97;;
12906;SDS011;6521;50.498;8.474;2023-04-25T02:47:40;8.83;;;5.60;;
12906;SDS011;6521;50.498;8.474;2023-04-25T02:50:11;13.50;;;6.17;;
12906;SDS011;6521;50.498;8.474;2023-04-25T02:52:44;11.03;;;5.20;;
12906;SDS011;6521;50.498;8.474;2023-04-25T02:55:23;7.97;;;4.80;;
12906;SDS011;6521;50.498;8.474;2023-04-25T02:57:53;16.07;;;5.30;;
12906;SDS011;6521;50.498;8.474;2023-04-25T03:00:38;8.83;;;5.23;;
12906;SDS011;6521;50.498;8.474;2023-04-25T03:03:09;11.90;;;5.37;;
12906;SDS011;6521;50.498;8.474;2023-04-25T03:05:39;14.37;;;5.83;;
12906;SDS011;6521;50.498;8.474;2023-04-25T03:08:11;10.87;;;5.40;;
12906;SDS011;6521;50.498;8.474;2023-04-25T03:10:43;9.77;;;5.23;;
12906;SDS011;6521;50.498;8.474;2023-04-25T03:13:14;8.63;;;5.33;;
12906;SDS011;6521;50.498;8.474;2023-04-25T03:15:47;9.73;;;5.27;;
12906;SDS011;6521;50.498;8.474;2023-04-25T03:18:18;12.10;;;6.20;;
12906;SDS011;6521;50.498;8.474;2023-04-25T03:20:48;18.90;;;6.03;;
12906;SDS011;6521;50.498;8.474;2023-04-25T03:23:19;14.57;;;6.37;;
12906;SDS011;6521;50.498;8.474;2023-04-25T03:25:50;14.73;;;6.23;;
12906;SDS011;6521;50.498;8.474;2023-04-25T03:28:21;14.20;;;6.70;;
12906;SDS011;6521;50.498;8.474;2023-04-25T03:30:52;11.63;;;6.30;;
12906;SDS011;6521;50.498;8.474;2023-04-25T03:33:24;16.03;;;6.47;;
12906;SDS011;6521;50.498;8.474;2023-04-25T03:35:55;14.17;;;6.73;;
12906;SDS011;6521;50.498;8.474;2023-04-25T03:38:26;15.97;;;7.03;;
12906;SDS011;6521;50.498;8.474;2023-04-25T03:40:56;9.37;;;6.00;;
12906;SDS011;6521;50.498;8.474;2023-04-25T03:43:35;11.47;;;6.33;;
12906;SDS011;6521;50.498;8.474;2023-04-25T03:46:15;11.63;;;6.00;;
12906;SDS011;6521;50.498;8.474;2023-04-25T03:48:47;14.57;;;7.10;;
12906;SDS011;6521;50.498;8.474;2023-04-25T03:51:24;14.30;;;6.23;;
12906;SDS011;6521;50.498;8.474;2023-04-25T03:53:56;10.40;;;6.60;;
12906;SDS011;6521;50.498;8.474;2023-04-25T03:56:35;13.33;;;6.30;;
12906;SDS011;6521;50.498;8.474;2023-04-25T03:59:17;12.67;;;8.07;;
12906;SDS011;6521;50.498;8.474;2023-04-25T04:01:49;13.57;;;7.30;;
12906;SDS011;6521;50.498;8.474;2023-04-25T04:04:20;10.57;;;6.50;;
12906;SDS011;6521;50.498;8.474;2023-04-25T04:06:51;12.77;;;6.73;;
12906;SDS011;6521;50.498;8.474;2023-04-25T04:09:28;14.90;;;7.23;;
12906;SDS011;6521;50.498;8.474;2023-04-25T04:12:00;14.27;;;7.47;;
12906;SDS011;6521;50.498;8.474;2023-04-25T04:14:34;16.27;;;8.00;;
12906;SDS011;6521;50.498;8.474;2023-04-25T04:17:04;15.03;;;8.07;;
12906;SDS011;6521;50.498;8.474;2023-04-25T04:19:36;13.47;;;6.87;;
12906;SDS011;6521;50.498;8.474;2023-04-25T04:22:25;18.70;;;7.80;;
12906;SDS011;6521;50.498;8.474;2023-04-25T04:24:59;13.40;;;7.90;;
12906;SDS011;6521;50.498;8.474;2023-04-25T04:27:59;17.53;;;7.63;;
12906;SDS011;6521;50.498;8.474;2023-04-25T04:30:44;16.17;;;7.07;;
12906;SDS011;6521;50.498;8.474;2023-04-25T04:33:17;16.53;;;7.83;;
12906;SDS011;6521;50.498;8.474;2023-04-25T04:35:56;9.10;;;6.13;;
12906;SDS011;6521;50.498;8.474;2023-04-25T04:38:27;10.23;;;5.77;;
12906;SDS011;6521;50.498;8.474;2023-04-25T04:41:00;10.03;;;5.90;;
12906;SDS011;6521;50.498;8.474;2023-04-25T04:44:00;9.40;;;5.70;;
12906;SDS011;6521;50.498;8.474;2023-04-25T04:46:42;9.43;;;5.67;;
12906;SDS011;6521;50.498;8.474;2023-04-25T04:49:50;13.00;;;5.67;;
12906;SDS011;6521;50.498;8.474;2023-04-25T04:52:37;8.10;;;4.97;;
12906;SDS011;6521;50.498;8.474;2023-04-25T04:55:41;8.63;;;5.40;;
12906;SDS011;6521;50.498;8.474;2023-04-25T04:58:36;12.93;;;7.10;;
12906;SDS011;6521;50.498;8.474;2023-04-25T05:01:26;13.17;;;6.80;;
12906;SDS011;6521;50.498;8.474;2023-04-25T05:04:04;8.10;;;5.57;;
12906;SDS011;6521;50.498;8.474;2023-04-25T05:07:05;9.23;;;4.87;;
12906;SDS011;6521;50.498;8.474;2023-04-25T05:09:36;7.30;;;4.20;;
12906;SDS011;6521;50.498;8.474;2023-04-25T05:12:27;9.10;;;5.13;;
12906;SDS011;6521;50.498;8.474;2023-04-25T05:15:11;11.70;;;5.47;;
12906;SDS011;6521;50.498;8.474;2023-04-25T05:17:57;18.20;;;6.57;;
12906;SDS011;6521;50.498;8.474;2023-04-25T05:20:54;11.23;;;5.87;;
12906;SDS011;6521;50.498;8.474;2023-04-25T05:23:42;9.60;;;6.23;;
12906;SDS011;6521;50.498;8.474;2023-04-25T05:26:39;18.40;;;6.63;;
12906;SDS011;6521;50.498;8.474;2023-04-25T05:29:29;9.57;;;5.93;;
12906;SDS011;6521;50.498;8.474;2023-04-25T05:32:26;12.13;;;5.90;;
12906;SDS011;6521;50.498;8.474;2023-04-25T05:34:57;9.93;;;5.27;;
12906;SDS011;6521;50.498;8.474;2023-04-25T05:37:35;12.03;;;5.27;;
12906;SDS011;6521;50.498;8.474;2023-04-25T05:40:14;15.60;;;6.53;;
12906;SDS011;6521;50.498;8.474;2023-04-25T05:42:45;22.67;;;6.47;;
12906;SDS011;6521;50.498;8.474;2023-04-25T05:45:35;10.33;;;5.03;;
12906;SDS011;6521;50.498;8.474;2023-04-25T05:48:26;10.43;;;5.17;;
12906;SDS011;6521;50.498;8.474;2023-04-25T05:51:15;11.20;;;5.10;;
12906;SDS011;6521;50.498;8.474;2023-04-25T05:54:10;8.73;;;5.57;;
12906;SDS011;6521;50.498;8.474;2023-04-25T05:56:41;10.70;;;5.27;;
12906;SDS011;6521;50.498;8.474;2023-04-25T05:59:13;9.20;;;5.60;;
12906;SDS011;6521;50.498;8.474;2023-04-25T06:01:44;10.97;;;5.37;;
12906;SDS011;6521;50.498;8.474;2023-04-25T06:04:15;10.10;;;5.53;;
12906;SDS011;6521;50.498;8.474;2023-04-25T06:06:46;11.47;;;5.40;;
12906;SDS011;6521;50.498;8.474;2023-04-25T06:09:17;7.93;;;5.37;;
12906;SDS011;6521;50.498;8.474;2023-04-25T06:11:48;11.60;;;5.40;;
12906;SDS011;6521;50.498;8.474;2023-04-25T06:14:18;10.23;;;5.53;;
12906;SDS011;6521;50.498;8.474;2023-04-25T06:16:53;10.90;;;5.27;;
12906;SDS011;6521;50.498;8.474;2023-04-25T06:19:23;12.97;;;5.73;;
12906;SDS011;6521;50.498;8.474;2023-04-25T06:21:55;9.83;;;6.23;;
12906;SDS011;6521;50.498;8.474;2023-04-25T06:24:25;13.50;;;6.00;;
12906;SDS011;6521;50.498;8.474;2023-04-25T06:26:56;12.37;;;5.97;;
12906;SDS011;6521;50.498;8.474;2023-04-25T06:29:27;10.73;;;5.77;;
12906;SDS011;6521;50.498;8.474;2023-04-25T06:31:58;10.47;;;5.73;;
12906;SDS011;6521;50.498;8.474;2023-04-25T06:34:29;9.63;;;5.50;;
12906;SDS011;6521;50.498;8.474;2023-04-25T06:37:00;11.00;;;6.43;;
12906;SDS011;6521;50.498;8.474;2023-04-25T06:39:31;10.13;;;6.33;;
12906;SDS011;6521;50.498;8.474;2023-04-25T06:42:01;13.00;;;7.37;;
12906;SDS011;6521;50.498;8.474;2023-04-25T06:44:44;11.83;;;6.30;;
12906;SDS011;6521;50.498;8.474;2023-04-25T06:47:17;10.63;;;5.83;;
12906;SDS011;6521;50.498;8.474;2023-04-25T06:49:48;13.93;;;6.50;;
12906;SDS011;6521;50.498;8.474;2023-04-25T06:52:19;9.67;;;5.37;;
12906;SDS011;6521;50.498;8.474;2023-04-25T06:54:50;12.83;;;6.10;;
12906;SDS011;6521;50.498;8.474;2023-04-25T06:57:40;17.57;;;6.00;;
12906;SDS011;6521;50.498;8.474;2023-04-25T07:00:34;10.83;;;6.07;;
12906;SDS011;6521;50.498;8.474;2023-04-25T07:03:05;13.73;;;6.57;;
12906;SDS011;6521;50.498;8.474;2023-04-25T07:05:36;11.10;;;5.73;;
12906;SDS011;6521;50.498;8.474;2023-04-25T07:08:07;11.30;;;6.20;;
12906;SDS011;6521;50.498;8.474;2023-04-25T07:10:37;9.57;;;6.60;;
12906;SDS011;6521;50.498;8.474;2023-04-25T07:13:09;9.30;;;5.77;;
12906;SDS011;6521;50.498;8.474;2023-04-25T07:15:40;11.23;;;6.50;;
12906;SDS011;6521;50.498;8.474;2023-04-25T07:18:12;10.27;;;6.00;;
12906;SDS011;6521;50.498;8.474;2023-04-25T07:20:43;9.97;;;6.33;;
12906;SDS011;6521;50.498;8.474;2023-04-25T07:23:14;13.27;;;6.20;;
12906;SDS011;6521;50.498;8.474;2023-04-25T07:25:46;11.53;;;5.97;;
12906;SDS011;6521;50.498;8.474;2023-04-25T07:28:19;8.60;;;5.63;;
12906;SDS011;6521;50.498;8.474;2023-04-25T07:30:51;9.17;;;5.97;;
12906;SDS011;6521;50.498;8.474;2023-04-25T07:33:22;8.93;;;5.90;;
12906;SDS011;6521;50.498;8.474;2023-04-25T07:35:54;9.27;;;6.43;;
12906;SDS011;6521;50.498;8.474;2023-04-25T07:38:26;9.17;;;5.77;;
12906;SDS011;6521;50.498;8.474;2023-04-25T07:40:57;9.93;;;5.83;;
12906;SDS011;6521;50.498;8.474;2023-04-25T07:43:28;10.03;;;5.80;;
12906;SDS011;6521;50.498;8.474;2023-04-25T07:46:02;8.13;;;6.20;;
12906;SDS011;6521;50.498;8.474;2023-04-25T07:48:36;12.53;;;6.70;;
12906;SDS011;6521;50.498;8.474;2023-04-25T07:51:07;10.97;;;6.37;;
12906;SDS011;6521;50.498;8.474;2023-04-25T07:53:40;9.63;;;5.57;;
12906;SDS011;6521;50.498;8.474;2023-04-25T07:56:16;6.93;;;5.50;;
12906;SDS011;6521;50.498;8.474;2023-04-25T07:58:49;7.53;;;5.50;;
12906;SDS011;6521;50.498;8.474;2023-04-25T08:01:22;10.97;;;5.97;;
12906;SDS011;6521;50.498;8.474;2023-04-25T08:04:05;8.40;;;5.47;;
12906;SDS011;6521;50.498;8.474;2023-04-25T08:06:50;8.87;;;5.30;;
12906;SDS011;6521;50.498;8.474;2023-04-25T08:09:27;11.73;;;5.77;;
12906;SDS011;6521;50.498;8.474;2023-04-25T08:12:00;8.30;;;5.27;;
12906;SDS011;6521;50.498;8.474;2023-04-25T08:14:35;12.00;;;5.60;;
12906;SDS011;6521;50.498;8.474;2023-04-25T08:17:09;10.73;;;5.53;;
12906;SDS011;6521;50.498;8.474;2023-04-25T08:19:44;7.87;;;4.80;;
12906;SDS011;6521;50.498;8.474;2023-04-25T08:22:23;7.10;;;5.07;;
12906;SDS011;6521;50.498;8.474;2023-04-25T08:25:09;9.50;;;5.10;;
12906;SDS011;6521;50.498;8.474;2023-04-25T08:27:40;7.23;;;5.27;;
12906;SDS011;6521;50.498;8.474;2023-04-25T08:30:12;13.60;;;5.00;;
12906;SDS011;6521;50.498;8.474;2023-04-25T08:32:44;8.00;;;5.23;;
12906;SDS011;6521;50.498;8.474;2023-04-25T08:35:28;10.17;;;5.23;;
12906;SDS011;6521;50.498;8.474;2023-04-25T08:37:59;6.33;;;4.77;;
12906;SDS011;6521;50.498;8.474;2023-04-25T08:40:31;10.53;;;5.00;;
12906;SDS011;6521;50.498;8.474;2023-04-25T08:43:13;6.23;;;4.83;;
12906;SDS011;6521;50.498;8.474;2023-04-25T08:45:45;11.17;;;5.03;;
12906;SDS011;6521;50.498;8.474;2023-04-25T08:48:35;12.57;;;5.33;;
12906;SDS011;6521;50.498;8.474;2023-04-25T08:51:08;10.07;;;5.70;;
12906;SDS011;6521;50.498;8.474;2023-04-25T08:53:40;13.67;;;5.50;;
12906;SDS011;6521;50.498;8.474;2023-04-25T08:56:14;8.73;;;5.03;;
12906;SDS011;6521;50.498;8.474;2023-04-25T08:58:48;6.63;;;3.77;;
12906;SDS011;6521;50.498;8.474;2023-04-25T09:01:22;6.03;;;3.80;;
12906;SDS011;6521;50.498;8.474;2023-04-25T09:03:57;6.27;;;3.50;;
12906;SDS011;6521;50.498;8.474;2023-04-25T09:06:28;8.43;;;2.97;;
12906;SDS011;6521;50.498;8.474;2023-04-25T09:09:02;8.40;;;2.83;;
12906;SDS011;6521;50.498;8.474;2023-04-25T09:11:37;4.50;;;3.20;;
12906;SDS011;6521;50.498;8.474;2023-04-25T09:14:19;6.10;;;2.80;;
12906;SDS011;6521;50.498;8.474;2023-04-25T09:17:04;21.27;;;12.57;;
12906;SDS011;6521;50.498;8.474;2023-04-25T09:19:45;14.43;;;6.23;;
12906;SDS011;6521;50.498;8.474;2023-04-25T09:22:36;7.90;;;3.00;;
12906;SDS011;6521;50.498;8.474;2023-04-25T09:25:11;6.10;;;2.57;;
12906;SDS011;6521;50.498;8.474;2023-04-25T09:27:49;7.67;;;2.83;;
12906;SDS011;6521;50.498;8.474;2023-04-25T09:30:29;7.97;;;2.80;;
12906;SDS011;6521;50.498;8.474;2023-04-25T09:33:10;10.97;;;3.23;;
12906;SDS011;6521;50.498;8.474;2023-04-25T09:35:43;6.60;;;3.03;;
12906;SDS011;6521;50.498;8.474;2023-04-25T09:38:23;8.53;;;3.60;;
12906;SDS011;6521;50.498;8.474;2023-04-25T09:40:59;9.73;;;3.50;;
12906;SDS011;6521;50.498;8.474;2023-04-25T09:43:42;6.40;;;3.00;;
12906;SDS011;6521;50.498;8.474;2023-04-25T09:46:15;7.20;;;3.10;;
12906;SDS011;6521;50.498;8.474;2023-04-25T09:48:54;10.03;;;4.40;;
12906;SDS011;6521;50.498;8.474;2023-04-25T09:51:35;9.07;;;3.03;;
12906;SDS011;6521;50.498;8.474;2023-04-25T09:54:06;6.03;;;3.37;;
12906;SDS011;6521;50.498;8.474;2023-04-25T09:56:44;6.80;;;3.37;;
12906;SDS011;6521;50.498;8.474;2023-04-25T09:59:21;8.80;;;4.10;;
12906;SDS011;6521;50.498;8.474;2023-04-25T10:01:55;8.13;;;2.77;;
12906;SDS011;6521;50.498;8.474;2023-04-25T10:04:36;11.43;;;2.90;;
12906;SDS011;6521;50.498;8.474;2023-04-25T10:07:14;9.33;;;2.80;;
12906;SDS011;6521;50.498;8.474;2023-04-25T10:09:48;7.40;;;3.90;;
12906;SDS011;6521;50.498;8.474;2023-04-25T10:12:22;6.40;;;2.60;;
12906;SDS011;6521;50.498;8.474;2023-04-25T10:14:54;6.63;;;2.50;;
12906;SDS011;6521;50.498;8.474;2023-04-25T10:17:25;9.67;;;2.83;;
12906;SDS011;6521;50.498;8.474;2023-04-25T10:19:58;7.97;;;3.07;;
12906;SDS011;6521;50.498;8.474;2023-04-25T10:22:43;10.17;;;3.67;;
12906;SDS011;6521;50.498;8.474;2023-04-25T10:25:15;8.63;;;3.13;;
12906;SDS011;6521;50.498;8.474;2023-04-25T10:27:47;8.00;;;3.40;;
12906;SDS011;6521;50.498;8.474;2023-04-25T10:30:20;6.43;;;3.70;;
12906;SDS011;6521;50.498;8.474;2023-04-25T10:32:51;7.20;;;3.43;;
12906;SDS011;6521;50.498;8.474;2023-04-25T10:35:26;9.87;;;3.50;;
12906;SDS011;6521;50.498;8.474;2023-04-25T10:40:39;7.63;;;3.00;;
12906;SDS011;6521;50.498;8.474;2023-04-25T10:48:55;7.63;;;2.63;;
12906;SDS011;6521;50.498;8.474;2023-04-25T10:51:31;8.13;;;2.37;;
12906;SDS011;6521;50.498;8.474;2023-04-25T10:54:06;7.47;;;2.97;;
12906;SDS011;6521;50.498;8.474;2023-04-25T10:56:40;7.97;;;2.60;;
12906;SDS011;6521;50.498;8.474;2023-04-25T10:59:15;6.23;;;2.70;;
12906;SDS011;6521;50.498;8.474;2023-04-25T11:01:51;8.97;;;2.70;;
12906;SDS011;6521;50.498;8.474;2023-04-25T11:04:31;6.47;;;3.27;;
12906;SDS011;6521;50.498;8.474;2023-04-25T11:07:13;10.57;;;3.07;;
12906;SDS011;6521;50.498;8.474;2023-04-25T11:09:54;6.43;;;2.93;;
12906;SDS011;6521;50.498;8.474;2023-04-25T11:12:25;6.70;;;2.80;;
12906;SDS011;6521;50.498;8.474;2023-04-25T11:14:59;8.23;;;2.60;;
12906;SDS011;6521;50.498;8.474;2023-04-25T11:17:34;6.57;;;2.93;;
12906;SDS011;6521;50.498;8.474;2023-04-25T11:20:05;9.00;;;3.10;;
12906;SDS011;6521;50.498;8.474;2023-04-25T11:22:39;6.87;;;2.77;;
12906;SDS011;6521;50.498;8.474;2023-04-25T11:25:15;6.23;;;2.57;;
12906;SDS011;6521;50.498;8.474;2023-04-25T11:27:50;5.90;;;2.30;;
12906;SDS011;6521;50.498;8.474;2023-04-25T11:30:22;4.77;;;2.27;;
12906;SDS011;6521;50.498;8.474;2023-04-25T11:32:53;13.50;;;3.13;;
12906;SDS011;6521;50.498;8.474;2023-04-25T11:35:25;9.20;;;2.93;;
12906;SDS011;6521;50.498;8.474;2023-04-25T11:37:56;8.87;;;3.10;;
12906;SDS011;6521;50.498;8.474;2023-04-25T11:40:27;8.57;;;3.60;;
12906;SDS011;6521;50.498;8.474;2023-04-25T11:42:59;4.80;;;2.73;;
12906;SDS011;6521;50.498;8.474;2023-04-25T11:45:30;6.67;;;3.13;;
12906;SDS011;6521;50.498;8.474;2023-04-25T11:48:01;12.13;;;3.13;;
12906;SDS011;6521;50.498;8.474;2023-04-25T11:50:34;8.30;;;2.90;;
12906;SDS011;6521;50.498;8.474;2023-04-25T11:53:05;5.27;;;2.60;;
12906;SDS011;6521;50.498;8.474;2023-04-25T11:55:36;10.47;;;3.23;;
12906;SDS011;6521;50.498;8.474;2023-04-25T11:58:08;9.00;;;3.00;;
12906;SDS011;6521;50.498;8.474;2023-04-25T12:00:41;4.27;;;2.70;;
12906;SDS011;6521;50.498;8.474;2023-04-25T12:03:12;8.37;;;2.83;;
12906;SDS011;6521;50.498;8.474;2023-04-25T12:05:44;6.57;;;3.00;;
12906;SDS011;6521;50.498;8.474;2023-04-25T12:08:16;6.53;;;3.27;;
12906;SDS011;6521;50.498;8.474;2023-04-25T12:10:46;6.17;;;3.17;;
12906;SDS011;6521;50.498;8.474;2023-04-25T12:13:23;9.30;;;3.67;;
12906;SDS011;6521;50.498;8.474;2023-04-25T12:15:55;8.87;;;3.90;;
12906;SDS011;6521;50.498;8.474;2023-04-25T12:18:26;7.43;;;3.17;;
12906;SDS011;6521;50.498;8.474;2023-04-25T12:20:58;5.97;;;3.40;;
12906;SDS011;6521;50.498;8.474;2023-04-25T12:23:29;9.40;;;3.50;;
12906;SDS011;6521;50.498;8.474;2023-04-25T12:26:00;9.67;;;3.20;;
12906;SDS011;6521;50.498;8.474;2023-04-25T12:28:33;8.63;;;2.97;;
12906;SDS011;6521;50.498;8.474;2023-04-25T12:31:05;5.07;;;2.70;;
12906;SDS011;6521;50.498;8.474;2023-04-25T12:33:37;6.27;;;2.43;;
12906;SDS011;6521;50.498;8.474;2023-04-25T12:36:09;8.52;;;2.80;;
12906;SDS011;6521;50.498;8.474;2023-04-25T12:38:42;4.80;;;3.00;;
12906;SDS011;6521;50.498;8.474;2023-04-25T12:41:13;5.17;;;2.73;;
12906;SDS011;6521;50.498;8.474;2023-04-25T12:43:44;6.90;;;2.97;;
12906;SDS011;6521;50.498;8.474;2023-04-25T12:46:15;5.07;;;2.80;;
12906;SDS011;6521;50.498;8.474;2023-04-25T12:48:46;6.30;;;2.47;;
12906;SDS011;6521;50.498;8.474;2023-04-25T12:51:17;8.07;;;2.50;;
12906;SDS011;6521;50.498;8.474;2023-04-25T12:53:48;7.80;;;2.50;;
12906;SDS011;6521;50.498;8.474;2023-04-25T12:56:18;7.30;;;2.40;;
12906;SDS011;6521;50.498;8.474;2023-04-25T12:58:50;5.87;;;2.77;;
12906;SDS011;6521;50.498;8.474;2023-04-25T13:01:21;4.90;;;2.60;;
12906;SDS011;6521;50.498;8.474;2023-04-25T13:03:52;5.33;;;1.90;;
12906;SDS011;6521;50.498;8.474;2023-04-25T13:06:23;3.73;;;2.17;;
12906;SDS011;6521;50.498;8.474;2023-04-25T13:08:54;4.90;;;2.70;;
12906;SDS011;6521;50.498;8.474;2023-04-25T13:11:25;4.43;;;2.30;;
12906;SDS011;6521;50.498;8.474;2023-04-25T13:13:56;4.37;;;2.70;;
12906;SDS011;6521;50.498;8.474;2023-04-25T13:16:27;3.43;;;1.93;;
12906;SDS011;6521;50.498;8.474;2023-04-25T13:18:57;9.03;;;2.37;;
12906;SDS011;6521;50.498;8.474;2023-04-25T13:21:29;4.57;;;2.03;;
12906;SDS011;6521;50.498;8.474;2023-04-25T13:24:03;6.47;;;2.47;;
12906;SDS011;6521;50.498;8.474;2023-04-25T13:26:34;7.33;;;2.30;;
12906;SDS011;6521;50.498;8.474;2023-04-25T13:29:05;7.07;;;2.80;;
12906;SDS011;6521;50.498;8.474;2023-04-25T13:31:36;9.43;;;3.50;;
12906;SDS011;6521;50.498;8.474;2023-04-25T13:34:07;5.57;;;2.13;;
12906;SDS011;6521;50.498;8.474;2023-04-25T13:36:38;5.13;;;2.30;;
12906;SDS011;6521;50.498;8.474;2023-04-25T13:39:09;8.07;;;3.37;;
12906;SDS011;6521;50.498;8.474;2023-04-25T13:41:41;8.90;;;2.83;;
12906;SDS011;6521;50.498;8.474;2023-04-25T13:44:12;8.30;;;2.33;;
12906;SDS011;6521;50.498;8.474;2023-04-25T13:46:43;8.63;;;2.63;;
12906;SDS011;6521;50.498;8.474;2023-04-25T13:49:14;5.17;;;2.07;;
12906;SDS011;6521;50.498;8.474;2023-04-25T13:51:45;6.60;;;2.50;;
12906;SDS011;6521;50.498;8.474;2023-04-25T13:54:16;6.20;;;2.90;;
12906;SDS011;6521;50.498;8.474;2023-04-25T13:56:47;6.53;;;2.70;;
12906;SDS011;6521;50.498;8.474;2023-04-25T13:59:19;7.67;;;2.60;;
12906;SDS011;6521;50.498;8.474;2023-04-25T14:01:50;8.77;;;2.63;;
12906;SDS011;6521;50.498;8.474;2023-04-25T14:04:21;7.40;;;2.27;;
12906;SDS011;6521;50.498;8.474;2023-04-25T14:06:52;6.93;;;2.37;;
12906;SDS011;6521;50.498;8.474;2023-04-25T14:09:22;6.47;;;2.33;;
12906;SDS011;6521;50.498;8.474;2023-04-25T14:11:56;5.53;;;2.30;;
12906;SDS011;6521;50.498;8.474;2023-04-25T14:14:27;6.00;;;2.27;;
12906;SDS011;6521;50.498;8.474;2023-04-25T14:16:57;5.37;;;2.40;;
12906;SDS011;6521;50.498;8.474;2023-04-25T14:19:28;5.20;;;2.47;;
12906;SDS011;6521;50.498;8.474;2023-04-25T14:21:59;6.43;;;2.80;;
12906;SDS011;6521;50.498;8.474;2023-04-25T14:24:30;8.53;;;2.47;;
12906;SDS011;6521;50.498;8.474;2023-04-25T14:27:01;8.80;;;3.00;;
12906;SDS011;6521;50.498;8.474;2023-04-25T14:29:32;6.00;;;2.67;;
12906;SDS011;6521;50.498;8.474;2023-04-25T14:32:02;7.17;;;2.87;;
12906;SDS011;6521;50.498;8.474;2023-04-25T14:34:34;6.63;;;2.33;;
12906;SDS011;6521;50.498;8.474;2023-04-25T14:37:05;7.03;;;2.10;;
12906;SDS011;6521;50.498;8.474;2023-04-25T14:39:36;3.23;;;2.03;;
12906;SDS011;6521;50.498;8.474;2023-04-25T14:42:07;7.87;;;2.07;;
12906;SDS011;6521;50.498;8.474;2023-04-25T14:44:38;4.77;;;2.53;;
12906;SDS011;6521;50.498;8.474;2023-04-25T14:47:09;6.33;;;2.87;;
12906;SDS011;6521;50.498;8.474;2023-04-25T14:49:43;8.40;;;2.77;;
12906;SDS011;6521;50.498;8.474;2023-04-25T14:52:14;5.77;;;2.37;;
12906;SDS011;6521;50.498;8.474;2023-04-25T14:54:45;5.97;;;2.30;;
12906;SDS011;6521;50.498;8.474;2023-04-25T14:57:16;3.78;;;2.28;;
12906;SDS011;6521;50.498;8.474;2023-04-25T14:59:47;4.63;;;2.13;;
12906;SDS011;6521;50.498;8.474;2023-04-25T15:02:18;5.93;;;1.90;;
12906;SDS011;6521;50.498;8.474;2023-04-25T15:04:49;5.03;;;2.07;;
12906;SDS011;6521;50.498;8.474;2023-04-25T15:07:19;8.77;;;2.47;;
12906;SDS011;6521;50.498;8.474;2023-04-25T15:09:50;4.07;;;2.30;;
12906;SDS011;6521;50.498;8.474;2023-04-25T15:12:23;5.43;;;2.10;;
12906;SDS011;6521;50.498;8.474;2023-04-25T15:14:56;3.93;;;2.03;;
12906;SDS011;6521;50.498;8.474;2023-04-25T15:17:27;6.57;;;2.10;;
12906;SDS011;6521;50.498;8.474;2023-04-25T15:20:01;4.80;;;2.00;;
12906;SDS011;6521;50.498;8.474;2023-04-25T15:22:32;6.10;;;2.20;;
12906;SDS011;6521;50.498;8.474;2023-04-25T15:25:03;4.73;;;2.07;;
12906;SDS011;6521;50.498;8.474;2023-04-25T15:27:34;7.73;;;2.30;;
12906;SDS011;6521;50.498;8.474;2023-04-25T15:30:11;6.03;;;2.27;;
12906;SDS011;6521;50.498;8.474;2023-04-25T15:32:44;4.13;;;1.90;;
12906;SDS011;6521;50.498;8.474;2023-04-25T15:35:16;7.43;;;2.57;;
12906;SDS011;6521;50.498;8.474;2023-04-25T15:37:47;3.33;;;1.90;;
12906;SDS011;6521;50.498;8.474;2023-04-25T15:40:17;4.43;;;2.00;;
12906;SDS011;6521;50.498;8.474;2023-04-25T15:42:49;4.37;;;1.93;;
12906;SDS011;6521;50.498;8.474;2023-04-25T15:45:23;6.00;;;2.20;;
12906;SDS011;6521;50.498;8.474;2023-04-25T15:47:55;4.03;;;1.80;;